Pagrindinis puslapis
METAR-TAF:

METAR-TAF

Oro uostai :

Ras al Chaima, Jungtiniai Arabų Emyratai

platuma: 25-37N, ilguma: 055-56E, Aukštis: 31 m

Dabartinis oras

Ataskaita buvo paskelbta 14 minutes, ne 13:00 UTC
Vėjas 11 kt iš Šiaurės
Temperatūra 40°C
Drėgmė 16%
Slėgis 1002 hPa
Matomumas 10 km arba daugiau
nėra debesų žemiau 1500 m ir nėra kamuolinių lietaus debesų

METAR: OMRK 221300Z 35011KT CAVOK 40/09 Q1002 A2959

Laikas: 17:14 (13:14 UTC)

Prognozė

Ataskaita buvo paskelbta 2 valandos ir 14 minutes, ne 11:00 UTC
Prognozė galioja nuo 22 metu 12 UTC su 23 metu 18 UTC
Vėjas 10 kt iš Šiaurės
Matomumas: 8000 m
Tapsmas
nuo 22 metu 16 UTC su 22 metu 18 UTC
Vėjas 6 kt iš Rytų
Tikimybė 40%
nuo 22 metu 21 UTC su 23 metu 05 UTC
Matomumas: 3000 m
migla
Tikimybė 30%
nuo 22 metu 22 UTC su 23 metu 04 UTC
Matomumas: 0050 m
rūkas
Tapsmas
nuo 23 metu 08 UTC su 23 metu 10 UTC
Vėjas 12 kt iš Šiaurės/Šiaurės Vakarų

TAF: OMRK 221100Z 2212/2318 35010KT 8000 NSC BECMG 2216/2218 10006KT PROB40 2221/2305 3000 HZ PROB30 2222/2304 0050 FG VV/// BECMG 2308/2310 34012KT

Orai ataskaitas ir orų prognozės (METAR, TAF).

turimą stotys yra geltonos ir raudonos taškus žemėlapyje.

Perkelti pele per norėdami pamatyti stoties vardą.

Tada spustelėkite, norėdami matyti oro stebėjimo ir prognozės.

Norėdami pakeisti žemėlapį: spustelėkite ant žalios mygtukų su juodo kryžiaus žemyn,; žalią mygtuką su brūkšneliu, jei norite nutolinti; arba žalių rodyklių gretimoms žemėlapius.


METAR-TAF: